sensor_id;sensor_type;location;lat;lon;timestamp;P1;durP1;ratioP1;P2;durP2;ratioP2
69008;SDS011;56065;52.472;13.380;2023-07-31T00:00:05;5.73;;;1.00;;
69008;SDS011;56065;52.472;13.380;2023-07-31T00:02:30;4.45;;;0.85;;
69008;SDS011;56065;52.472;13.380;2023-07-31T00:04:56;3.43;;;0.90;;
69008;SDS011;56065;52.472;13.380;2023-07-31T00:07:21;6.47;;;1.00;;
69008;SDS011;56065;52.472;13.380;2023-07-31T00:09:47;4.35;;;0.88;;
69008;SDS011;56065;52.472;13.380;2023-07-31T00:12:12;4.60;;;0.80;;
69008;SDS011;56065;52.472;13.380;2023-07-31T00:14:37;4.80;;;1.00;;
69008;SDS011;56065;52.472;13.380;2023-07-31T00:17:03;4.93;;;0.80;;
69008;SDS011;56065;52.472;13.380;2023-07-31T00:19:28;6.53;;;1.10;;
69008;SDS011;56065;52.472;13.380;2023-07-31T00:21:54;3.10;;;0.90;;
69008;SDS011;56065;52.472;13.380;2023-07-31T00:24:19;3.77;;;1.00;;
69008;SDS011;56065;52.472;13.380;2023-07-31T00:26:44;5.97;;;1.10;;
69008;SDS011;56065;52.472;13.380;2023-07-31T00:29:10;6.00;;;1.63;;
69008;SDS011;56065;52.472;13.380;2023-07-31T00:31:35;5.73;;;1.20;;
69008;SDS011;56065;52.472;13.380;2023-07-31T00:34:00;4.67;;;1.10;;
69008;SDS011;56065;52.472;13.380;2023-07-31T00:36:26;4.20;;;0.83;;
69008;SDS011;56065;52.472;13.380;2023-07-31T00:38:51;3.73;;;1.10;;
69008;SDS011;56065;52.472;13.380;2023-07-31T00:41:17;6.47;;;1.30;;
69008;SDS011;56065;52.472;13.380;2023-07-31T00:43:42;6.07;;;1.20;;
69008;SDS011;56065;52.472;13.380;2023-07-31T00:46:07;3.57;;;1.07;;
69008;SDS011;56065;52.472;13.380;2023-07-31T00:48:33;3.75;;;1.00;;
69008;SDS011;56065;52.472;13.380;2023-07-31T00:51:00;5.53;;;1.30;;
69008;SDS011;56065;52.472;13.380;2023-07-31T00:53:26;5.17;;;1.30;;
69008;SDS011;56065;52.472;13.380;2023-07-31T00:55:52;4.55;;;1.23;;
69008;SDS011;56065;52.472;13.380;2023-07-31T00:58:18;4.90;;;1.17;;
69008;SDS011;56065;52.472;13.380;2023-07-31T01:00:43;5.33;;;1.30;;
69008;SDS011;56065;52.472;13.380;2023-07-31T01:03:09;6.82;;;1.33;;
69008;SDS011;56065;52.472;13.380;2023-07-31T01:11:18;6.97;;;1.60;;
69008;SDS011;56065;52.472;13.380;2023-07-31T01:13:46;4.47;;;1.48;;
69008;SDS011;56065;52.472;13.380;2023-07-31T01:16:12;4.63;;;1.27;;
69008;SDS011;56065;52.472;13.380;2023-07-31T01:18:38;4.03;;;0.87;;
69008;SDS011;56065;52.472;13.380;2023-07-31T01:21:07;3.70;;;1.03;;
69008;SDS011;56065;52.472;13.380;2023-07-31T01:26:38;6.17;;;1.57;;
69008;SDS011;56065;52.472;13.380;2023-07-31T01:29:10;6.45;;;1.50;;
69008;SDS011;56065;52.472;13.380;2023-07-31T01:31:55;4.40;;;1.20;;
69008;SDS011;56065;52.472;13.380;2023-07-31T01:34:24;5.47;;;1.58;;
69008;SDS011;56065;52.472;13.380;2023-07-31T01:36:51;5.28;;;1.38;;
69008;SDS011;56065;52.472;13.380;2023-07-31T01:39:16;3.43;;;1.17;;
69008;SDS011;56065;52.472;13.380;2023-07-31T01:41:41;4.37;;;1.40;;
69008;SDS011;56065;52.472;13.380;2023-07-31T01:44:07;4.97;;;1.67;;
69008;SDS011;56065;52.472;13.380;2023-07-31T01:46:32;4.93;;;1.10;;
69008;SDS011;56065;52.472;13.380;2023-07-31T01:48:57;6.93;;;1.80;;
69008;SDS011;56065;52.472;13.380;2023-07-31T01:51:23;4.10;;;1.40;;
69008;SDS011;56065;52.472;13.380;2023-07-31T01:53:48;7.03;;;1.77;;
69008;SDS011;56065;52.472;13.380;2023-07-31T01:56:13;3.42;;;1.17;;
69008;SDS011;56065;52.472;13.380;2023-07-31T01:58:39;5.40;;;1.53;;
69008;SDS011;56065;52.472;13.380;2023-07-31T02:01:04;7.87;;;1.50;;
69008;SDS011;56065;52.472;13.380;2023-07-31T02:03:30;4.07;;;1.13;;
69008;SDS011;56065;52.472;13.380;2023-07-31T02:05:55;5.93;;;1.80;;
69008;SDS011;56065;52.472;13.380;2023-07-31T02:08:21;5.53;;;1.38;;
69008;SDS011;56065;52.472;13.380;2023-07-31T02:10:47;5.47;;;1.43;;
69008;SDS011;56065;52.472;13.380;2023-07-31T02:13:12;7.00;;;1.50;;
69008;SDS011;56065;52.472;13.380;2023-07-31T02:15:37;5.97;;;1.70;;
69008;SDS011;56065;52.472;13.380;2023-07-31T02:18:03;7.57;;;1.70;;
69008;SDS011;56065;52.472;13.380;2023-07-31T02:20:28;6.20;;;1.80;;
69008;SDS011;56065;52.472;13.380;2023-07-31T02:22:53;6.47;;;1.50;;
69008;SDS011;56065;52.472;13.380;2023-07-31T02:25:19;7.63;;;1.80;;
69008;SDS011;56065;52.472;13.380;2023-07-31T02:27:44;9.13;;;1.63;;
69008;SDS011;56065;52.472;13.380;2023-07-31T02:30:09;4.50;;;1.57;;
69008;SDS011;56065;52.472;13.380;2023-07-31T02:32:35;5.85;;;1.80;;
69008;SDS011;56065;52.472;13.380;2023-07-31T02:35:01;8.03;;;1.77;;
69008;SDS011;56065;52.472;13.380;2023-07-31T02:37:26;7.67;;;1.97;;
69008;SDS011;56065;52.472;13.380;2023-07-31T02:39:53;6.90;;;2.00;;
69008;SDS011;56065;52.472;13.380;2023-07-31T02:42:19;4.80;;;1.70;;
69008;SDS011;56065;52.472;13.380;2023-07-31T02:44:44;6.53;;;2.03;;
69008;SDS011;56065;52.472;13.380;2023-07-31T02:47:09;6.63;;;2.07;;
69008;SDS011;56065;52.472;13.380;2023-07-31T02:49:35;7.77;;;1.97;;
69008;SDS011;56065;52.472;13.380;2023-07-31T02:52:00;7.07;;;2.07;;
69008;SDS011;56065;52.472;13.380;2023-07-31T02:54:25;7.00;;;1.90;;
69008;SDS011;56065;52.472;13.380;2023-07-31T02:56:51;6.97;;;2.27;;
69008;SDS011;56065;52.472;13.380;2023-07-31T02:59:16;7.37;;;1.90;;
69008;SDS011;56065;52.472;13.380;2023-07-31T03:01:42;7.30;;;2.10;;
69008;SDS011;56065;52.472;13.380;2023-07-31T03:04:07;8.03;;;2.23;;
69008;SDS011;56065;52.472;13.380;2023-07-31T03:06:32;6.43;;;2.27;;
69008;SDS011;56065;52.472;13.380;2023-07-31T03:08:58;6.33;;;2.03;;
69008;SDS011;56065;52.472;13.380;2023-07-31T03:11:23;6.97;;;1.93;;
69008;SDS011;56065;52.472;13.380;2023-07-31T03:13:48;5.37;;;1.87;;
69008;SDS011;56065;52.472;13.380;2023-07-31T03:16:14;7.23;;;2.10;;
69008;SDS011;56065;52.472;13.380;2023-07-31T03:18:39;6.82;;;2.33;;
69008;SDS011;56065;52.472;13.380;2023-07-31T03:21:04;6.93;;;2.30;;
69008;SDS011;56065;52.472;13.380;2023-07-31T03:23:30;5.57;;;1.87;;
69008;SDS011;56065;52.472;13.380;2023-07-31T03:25:58;6.80;;;2.03;;
69008;SDS011;56065;52.472;13.380;2023-07-31T03:28:30;6.55;;;2.13;;
69008;SDS011;56065;52.472;13.380;2023-07-31T03:30:56;5.03;;;2.07;;
69008;SDS011;56065;52.472;13.380;2023-07-31T03:33:21;7.30;;;2.17;;
69008;SDS011;56065;52.472;13.380;2023-07-31T03:35:46;7.53;;;2.33;;
69008;SDS011;56065;52.472;13.380;2023-07-31T03:38:12;6.00;;;2.00;;
69008;SDS011;56065;52.472;13.380;2023-07-31T03:40:38;9.43;;;2.08;;
69008;SDS011;56065;52.472;13.380;2023-07-31T03:43:03;8.83;;;2.53;;
69008;SDS011;56065;52.472;13.380;2023-07-31T03:45:30;8.35;;;2.38;;
69008;SDS011;56065;52.472;13.380;2023-07-31T03:47:55;7.57;;;2.50;;
69008;SDS011;56065;52.472;13.380;2023-07-31T03:50:20;5.47;;;2.20;;
69008;SDS011;56065;52.472;13.380;2023-07-31T03:52:46;6.50;;;2.00;;
69008;SDS011;56065;52.472;13.380;2023-07-31T03:55:11;7.85;;;2.22;;
69008;SDS011;56065;52.472;13.380;2023-07-31T03:57:36;6.57;;;2.30;;
69008;SDS011;56065;52.472;13.380;2023-07-31T04:00:02;6.47;;;2.13;;
69008;SDS011;56065;52.472;13.380;2023-07-31T04:02:27;8.20;;;2.57;;
69008;SDS011;56065;52.472;13.380;2023-07-31T04:04:53;8.77;;;2.28;;
69008;SDS011;56065;52.472;13.380;2023-07-31T04:07:18;5.97;;;2.30;;
69008;SDS011;56065;52.472;13.380;2023-07-31T04:09:43;7.00;;;2.23;;
69008;SDS011;56065;52.472;13.380;2023-07-31T04:12:09;5.43;;;2.10;;
69008;SDS011;56065;52.472;13.380;2023-07-31T04:14:34;7.67;;;2.07;;
69008;SDS011;56065;52.472;13.380;2023-07-31T04:16:59;9.23;;;3.00;;
69008;SDS011;56065;52.472;13.380;2023-07-31T04:19:25;9.57;;;2.40;;
69008;SDS011;56065;52.472;13.380;2023-07-31T04:21:50;7.80;;;2.20;;
69008;SDS011;56065;52.472;13.380;2023-07-31T04:24:15;6.53;;;1.90;;
69008;SDS011;56065;52.472;13.380;2023-07-31T04:26:41;8.32;;;1.80;;
69008;SDS011;56065;52.472;13.380;2023-07-31T04:29:06;10.07;;;2.60;;
69008;SDS011;56065;52.472;13.380;2023-07-31T04:31:32;6.07;;;1.90;;
69008;SDS011;56065;52.472;13.380;2023-07-31T04:33:58;7.82;;;1.92;;
69008;SDS011;56065;52.472;13.380;2023-07-31T04:36:23;7.10;;;2.60;;
69008;SDS011;56065;52.472;13.380;2023-07-31T04:38:49;7.70;;;2.47;;
69008;SDS011;56065;52.472;13.380;2023-07-31T04:41:14;6.68;;;2.40;;
69008;SDS011;56065;52.472;13.380;2023-07-31T04:43:39;5.60;;;1.80;;
69008;SDS011;56065;52.472;13.380;2023-07-31T04:46:05;7.82;;;2.40;;
69008;SDS011;56065;52.472;13.380;2023-07-31T04:48:31;11.37;;;2.57;;
69008;SDS011;56065;52.472;13.380;2023-07-31T04:50:56;8.10;;;2.30;;
69008;SDS011;56065;52.472;13.380;2023-07-31T04:53:21;7.33;;;2.47;;
69008;SDS011;56065;52.472;13.380;2023-07-31T04:55:47;8.33;;;2.83;;
69008;SDS011;56065;52.472;13.380;2023-07-31T04:58:12;8.07;;;2.10;;
69008;SDS011;56065;52.472;13.380;2023-07-31T05:00:37;7.43;;;2.40;;
69008;SDS011;56065;52.472;13.380;2023-07-31T05:03:03;7.33;;;2.10;;
69008;SDS011;56065;52.472;13.380;2023-07-31T05:05:28;7.70;;;2.35;;
69008;SDS011;56065;52.472;13.380;2023-07-31T05:07:53;6.10;;;2.03;;
69008;SDS011;56065;52.472;13.380;2023-07-31T05:10:19;8.73;;;2.97;;
69008;SDS011;56065;52.472;13.380;2023-07-31T05:12:44;10.57;;;2.57;;
69008;SDS011;56065;52.472;13.380;2023-07-31T05:15:10;6.23;;;2.40;;
69008;SDS011;56065;52.472;13.380;2023-07-31T05:17:35;8.37;;;2.20;;
69008;SDS011;56065;52.472;13.380;2023-07-31T05:20:00;7.80;;;2.10;;
69008;SDS011;56065;52.472;13.380;2023-07-31T05:22:26;6.50;;;1.90;;
69008;SDS011;56065;52.472;13.380;2023-07-31T05:24:51;7.33;;;2.00;;
69008;SDS011;56065;52.472;13.380;2023-07-31T05:27:16;8.27;;;2.17;;
69008;SDS011;56065;52.472;13.380;2023-07-31T05:29:43;8.13;;;1.75;;
69008;SDS011;56065;52.472;13.380;2023-07-31T05:32:09;7.55;;;2.08;;
69008;SDS011;56065;52.472;13.380;2023-07-31T05:34:35;7.40;;;1.70;;
69008;SDS011;56065;52.472;13.380;2023-07-31T05:37:00;8.87;;;2.10;;
69008;SDS011;56065;52.472;13.380;2023-07-31T05:39:25;7.23;;;2.30;;
69008;SDS011;56065;52.472;13.380;2023-07-31T05:41:51;7.97;;;2.13;;
69008;SDS011;56065;52.472;13.380;2023-07-31T05:44:16;7.10;;;1.90;;
69008;SDS011;56065;52.472;13.380;2023-07-31T05:46:41;5.83;;;2.10;;
69008;SDS011;56065;52.472;13.380;2023-07-31T05:49:07;8.55;;;2.20;;
69008;SDS011;56065;52.472;13.380;2023-07-31T05:51:32;5.60;;;1.90;;
69008;SDS011;56065;52.472;13.380;2023-07-31T05:53:57;8.27;;;1.90;;
69008;SDS011;56065;52.472;13.380;2023-07-31T05:56:23;7.40;;;2.20;;
69008;SDS011;56065;52.472;13.380;2023-07-31T05:58:48;5.97;;;2.00;;
69008;SDS011;56065;52.472;13.380;2023-07-31T06:01:15;7.30;;;2.13;;
69008;SDS011;56065;52.472;13.380;2023-07-31T06:03:42;7.45;;;1.90;;
69008;SDS011;56065;52.472;13.380;2023-07-31T06:06:07;5.07;;;1.40;;
69008;SDS011;56065;52.472;13.380;2023-07-31T06:08:33;7.70;;;1.83;;
69008;SDS011;56065;52.472;13.380;2023-07-31T06:10:58;8.83;;;2.23;;
69008;SDS011;56065;52.472;13.380;2023-07-31T06:13:23;5.80;;;1.45;;
69008;SDS011;56065;52.472;13.380;2023-07-31T06:15:49;7.73;;;1.37;;
69008;SDS011;56065;52.472;13.380;2023-07-31T06:18:14;8.53;;;1.97;;
69008;SDS011;56065;52.472;13.380;2023-07-31T06:20:39;5.00;;;1.47;;
69008;SDS011;56065;52.472;13.380;2023-07-31T06:23:05;6.60;;;1.75;;
69008;SDS011;56065;52.472;13.380;2023-07-31T06:25:31;6.73;;;1.83;;
69008;SDS011;56065;52.472;13.380;2023-07-31T06:27:56;8.27;;;1.93;;
69008;SDS011;56065;52.472;13.380;2023-07-31T06:30:21;5.87;;;1.70;;
69008;SDS011;56065;52.472;13.380;2023-07-31T06:32:47;5.13;;;1.50;;
69008;SDS011;56065;52.472;13.380;2023-07-31T06:35:12;5.37;;;1.60;;
69008;SDS011;56065;52.472;13.380;2023-07-31T06:37:37;8.23;;;1.80;;
69008;SDS011;56065;52.472;13.380;2023-07-31T06:40:05;6.17;;;2.00;;
69008;SDS011;56065;52.472;13.380;2023-07-31T06:42:32;7.00;;;1.55;;
69008;SDS011;56065;52.472;13.380;2023-07-31T06:44:58;7.17;;;1.70;;
69008;SDS011;56065;52.472;13.380;2023-07-31T06:47:23;7.20;;;2.00;;
69008;SDS011;56065;52.472;13.380;2023-07-31T06:49:48;5.78;;;1.48;;
69008;SDS011;56065;52.472;13.380;2023-07-31T06:52:14;5.07;;;1.63;;
69008;SDS011;56065;52.472;13.380;2023-07-31T06:54:39;6.50;;;1.90;;
69008;SDS011;56065;52.472;13.380;2023-07-31T06:57:04;6.40;;;1.40;;
69008;SDS011;56065;52.472;13.380;2023-07-31T06:59:30;8.43;;;1.43;;
69008;SDS011;56065;52.472;13.380;2023-07-31T07:01:55;6.67;;;1.50;;
69008;SDS011;56065;52.472;13.380;2023-07-31T07:04:20;7.97;;;1.57;;
69008;SDS011;56065;52.472;13.380;2023-07-31T07:06:46;6.97;;;1.58;;
69008;SDS011;56065;52.472;13.380;2023-07-31T07:09:11;7.90;;;1.80;;
69008;SDS011;56065;52.472;13.380;2023-07-31T07:11:37;7.30;;;1.50;;
69008;SDS011;56065;52.472;13.380;2023-07-31T07:14:02;8.48;;;1.90;;
69008;SDS011;56065;52.472;13.380;2023-07-31T07:16:28;5.90;;;1.60;;
69008;SDS011;56065;52.472;13.380;2023-07-31T07:18:53;5.80;;;1.60;;
69008;SDS011;56065;52.472;13.380;2023-07-31T07:21:19;12.97;;;1.63;;
69008;SDS011;56065;52.472;13.380;2023-07-31T07:23:44;5.55;;;1.40;;
69008;SDS011;56065;52.472;13.380;2023-07-31T07:26:10;7.47;;;1.70;;
69008;SDS011;56065;52.472;13.380;2023-07-31T07:28:35;6.40;;;1.20;;
69008;SDS011;56065;52.472;13.380;2023-07-31T07:31:02;6.55;;;1.80;;
69008;SDS011;56065;52.472;13.380;2023-07-31T07:33:27;5.37;;;1.40;;
69008;SDS011;56065;52.472;13.380;2023-07-31T07:35:53;6.00;;;1.45;;
69008;SDS011;56065;52.472;13.380;2023-07-31T07:38:19;6.00;;;1.60;;
69008;SDS011;56065;52.472;13.380;2023-07-31T07:40:44;6.07;;;1.33;;
69008;SDS011;56065;52.472;13.380;2023-07-31T07:43:11;5.78;;;1.52;;
69008;SDS011;56065;52.472;13.380;2023-07-31T07:45:37;5.80;;;1.73;;
69008;SDS011;56065;52.472;13.380;2023-07-31T07:48:02;5.57;;;1.30;;
69008;SDS011;56065;52.472;13.380;2023-07-31T07:50:28;6.93;;;1.83;;
69008;SDS011;56065;52.472;13.380;2023-07-31T07:52:53;5.27;;;1.50;;
69008;SDS011;56065;52.472;13.380;2023-07-31T07:55:19;7.93;;;2.10;;
69008;SDS011;56065;52.472;13.380;2023-07-31T07:57:44;6.73;;;1.70;;
69008;SDS011;56065;52.472;13.380;2023-07-31T08:00:10;5.00;;;1.40;;
69008;SDS011;56065;52.472;13.380;2023-07-31T08:02:35;5.40;;;1.23;;
69008;SDS011;56065;52.472;13.380;2023-07-31T08:05:01;5.03;;;1.40;;
69008;SDS011;56065;52.472;13.380;2023-07-31T08:07:26;4.33;;;1.40;;
69008;SDS011;56065;52.472;13.380;2023-07-31T08:09:52;4.33;;;1.10;;
69008;SDS011;56065;52.472;13.380;2023-07-31T08:12:17;41.90;;;4.10;;
69008;SDS011;56065;52.472;13.380;2023-07-31T08:14:42;5.47;;;1.27;;
69008;SDS011;56065;52.472;13.380;2023-07-31T08:17:08;9.83;;;1.50;;
69008;SDS011;56065;52.472;13.380;2023-07-31T08:19:34;10.25;;;1.40;;
69008;SDS011;56065;52.472;13.380;2023-07-31T08:21:59;5.17;;;1.20;;
69008;SDS011;56065;52.472;13.380;2023-07-31T08:24:24;5.07;;;1.30;;
69008;SDS011;56065;52.472;13.380;2023-07-31T08:26:50;5.03;;;1.20;;
69008;SDS011;56065;52.472;13.380;2023-07-31T08:29:15;9.47;;;2.03;;
69008;SDS011;56065;52.472;13.380;2023-07-31T08:31:40;4.60;;;1.37;;
69008;SDS011;56065;52.472;13.380;2023-07-31T08:34:06;5.37;;;1.33;;
69008;SDS011;56065;52.472;13.380;2023-07-31T08:36:31;5.63;;;1.50;;
69008;SDS011;56065;52.472;13.380;2023-07-31T08:38:57;5.47;;;1.33;;
69008;SDS011;56065;52.472;13.380;2023-07-31T08:41:22;6.57;;;1.37;;
69008;SDS011;56065;52.472;13.380;2023-07-31T08:43:49;6.87;;;1.67;;
69008;SDS011;56065;52.472;13.380;2023-07-31T08:46:15;5.43;;;1.58;;
69008;SDS011;56065;52.472;13.380;2023-07-31T08:48:41;5.33;;;1.30;;
69008;SDS011;56065;52.472;13.380;2023-07-31T08:51:07;5.57;;;1.38;;
69008;SDS011;56065;52.472;13.380;2023-07-31T08:53:33;4.33;;;1.33;;
69008;SDS011;56065;52.472;13.380;2023-07-31T08:55:58;5.13;;;1.42;;
69008;SDS011;56065;52.472;13.380;2023-07-31T08:58:24;4.33;;;1.30;;
69008;SDS011;56065;52.472;13.380;2023-07-31T09:00:52;5.82;;;1.52;;
69008;SDS011;56065;52.472;13.380;2023-07-31T09:03:19;4.72;;;1.67;;
69008;SDS011;56065;52.472;13.380;2023-07-31T09:05:47;4.97;;;1.10;;
69008;SDS011;56065;52.472;13.380;2023-07-31T09:08:15;4.55;;;1.33;;
69008;SDS011;56065;52.472;13.380;2023-07-31T09:10:44;6.30;;;1.20;;
69008;SDS011;56065;52.472;13.380;2023-07-31T09:13:16;4.05;;;1.33;;
69008;SDS011;56065;52.472;13.380;2023-07-31T09:15:43;6.18;;;1.20;;
69008;SDS011;56065;52.472;13.380;2023-07-31T09:18:10;2.88;;;0.70;;
69008;SDS011;56065;52.472;13.380;2023-07-31T09:20:36;4.93;;;1.10;;
69008;SDS011;56065;52.472;13.380;2023-07-31T09:23:06;3.17;;;1.00;;
69008;SDS011;56065;52.472;13.380;2023-07-31T09:25:36;4.32;;;1.02;;
69008;SDS011;56065;52.472;13.380;2023-07-31T09:28:03;4.70;;;0.80;;
69008;SDS011;56065;52.472;13.380;2023-07-31T09:30:32;2.80;;;0.77;;
69008;SDS011;56065;52.472;13.380;2023-07-31T09:33:10;2.80;;;0.60;;
69008;SDS011;56065;52.472;13.380;2023-07-31T09:35:35;1.83;;;0.60;;
69008;SDS011;56065;52.472;13.380;2023-07-31T09:38:03;3.40;;;0.90;;
69008;SDS011;56065;52.472;13.380;2023-07-31T09:40:31;4.18;;;0.68;;
69008;SDS011;56065;52.472;13.380;2023-07-31T09:42:59;2.83;;;0.70;;
69008;SDS011;56065;52.472;13.380;2023-07-31T09:45:25;2.58;;;0.70;;
69008;SDS011;56065;52.472;13.380;2023-07-31T09:47:51;2.00;;;0.53;;
69008;SDS011;56065;52.472;13.380;2023-07-31T09:50:17;2.13;;;0.60;;
69008;SDS011;56065;52.472;13.380;2023-07-31T09:52:45;2.58;;;0.82;;
69008;SDS011;56065;52.472;13.380;2023-07-31T09:55:10;3.30;;;0.67;;
69008;SDS011;56065;52.472;13.380;2023-07-31T09:57:43;2.70;;;0.73;;
69008;SDS011;56065;52.472;13.380;2023-07-31T10:00:13;3.00;;;1.00;;
69008;SDS011;56065;52.472;13.380;2023-07-31T10:02:41;4.43;;;0.95;;
69008;SDS011;56065;52.472;13.380;2023-07-31T10:05:08;3.47;;;1.07;;
69008;SDS011;56065;52.472;13.380;2023-07-31T10:07:36;4.45;;;1.10;;
69008;SDS011;56065;52.472;13.380;2023-07-31T10:10:03;5.72;;;1.30;;
69008;SDS011;56065;52.472;13.380;2023-07-31T10:12:31;7.13;;;1.60;;
69008;SDS011;56065;52.472;13.380;2023-07-31T10:14:58;6.57;;;1.67;;
69008;SDS011;56065;52.472;13.380;2023-07-31T10:17:25;4.45;;;1.48;;
69008;SDS011;56065;52.472;13.380;2023-07-31T10:19:50;5.35;;;1.67;;
69008;SDS011;56065;52.472;13.380;2023-07-31T10:22:16;6.10;;;1.80;;
69008;SDS011;56065;52.472;13.380;2023-07-31T10:24:43;5.78;;;1.85;;
69008;SDS011;56065;52.472;13.380;2023-07-31T10:27:10;8.23;;;2.15;;
69008;SDS011;56065;52.472;13.380;2023-07-31T10:29:36;5.87;;;1.97;;
69008;SDS011;56065;52.472;13.380;2023-07-31T10:32:03;8.98;;;2.25;;
69008;SDS011;56065;52.472;13.380;2023-07-31T10:34:32;14.98;;;6.30;;
69008;SDS011;56065;52.472;13.380;2023-07-31T10:39:57;10.15;;;2.17;;
69008;SDS011;56065;52.472;13.380;2023-07-31T10:42:28;9.82;;;3.42;;
69008;SDS011;56065;52.472;13.380;2023-07-31T10:44:58;9.32;;;2.50;;
69008;SDS011;56065;52.472;13.380;2023-07-31T10:47:25;7.65;;;2.35;;
69008;SDS011;56065;52.472;13.380;2023-07-31T10:49:51;6.57;;;2.10;;
69008;SDS011;56065;52.472;13.380;2023-07-31T10:52:20;7.57;;;2.40;;
69008;SDS011;56065;52.472;13.380;2023-07-31T10:55:12;6.75;;;2.22;;
69008;SDS011;56065;52.472;13.380;2023-07-31T10:57:44;7.28;;;2.50;;
69008;SDS011;56065;52.472;13.380;2023-07-31T11:00:21;5.93;;;2.23;;
69008;SDS011;56065;52.472;13.380;2023-07-31T11:03:03;7.50;;;3.47;;
69008;SDS011;56065;52.472;13.380;2023-07-31T11:08:35;6.00;;;2.38;;
69008;SDS011;56065;52.472;13.380;2023-07-31T11:11:06;6.97;;;2.55;;
69008;SDS011;56065;52.472;13.380;2023-07-31T11:16:10;6.82;;;2.10;;
69008;SDS011;56065;52.472;13.380;2023-07-31T11:18:38;7.13;;;2.50;;
69008;SDS011;56065;52.472;13.380;2023-07-31T11:21:05;9.93;;;2.55;;
69008;SDS011;56065;52.472;13.380;2023-07-31T11:23:31;10.63;;;2.30;;
69008;SDS011;56065;52.472;13.380;2023-07-31T11:26:00;8.50;;;2.25;;
69008;SDS011;56065;52.472;13.380;2023-07-31T11:28:26;6.75;;;2.40;;
69008;SDS011;56065;52.472;13.380;2023-07-31T11:30:57;6.55;;;2.20;;
69008;SDS011;56065;52.472;13.380;2023-07-31T11:33:22;7.83;;;2.33;;
69008;SDS011;56065;52.472;13.380;2023-07-31T11:35:48;8.40;;;2.00;;
69008;SDS011;56065;52.472;13.380;2023-07-31T11:38:30;7.97;;;2.20;;
69008;SDS011;56065;52.472;13.380;2023-07-31T11:40:59;6.90;;;2.13;;
69008;SDS011;56065;52.472;13.380;2023-07-31T11:43:27;6.93;;;2.38;;
69008;SDS011;56065;52.472;13.380;2023-07-31T11:45:57;7.90;;;2.13;;
69008;SDS011;56065;52.472;13.380;2023-07-31T11:50:56;6.80;;;2.00;;
69008;SDS011;56065;52.472;13.380;2023-07-31T11:53:36;6.95;;;1.90;;
69008;SDS011;56065;52.472;13.380;2023-07-31T11:56:05;6.78;;;1.90;;
69008;SDS011;56065;52.472;13.380;2023-07-31T11:58:32;6.78;;;1.98;;
69008;SDS011;56065;52.472;13.380;2023-07-31T12:00:59;5.60;;;2.13;;
69008;SDS011;56065;52.472;13.380;2023-07-31T12:03:25;5.82;;;1.92;;
69008;SDS011;56065;52.472;13.380;2023-07-31T12:05:52;5.28;;;1.60;;
69008;SDS011;56065;52.472;13.380;2023-07-31T12:08:18;8.02;;;1.85;;
69008;SDS011;56065;52.472;13.380;2023-07-31T12:10:46;6.03;;;1.85;;
69008;SDS011;56065;52.472;13.380;2023-07-31T12:13:20;7.33;;;2.00;;
69008;SDS011;56065;52.472;13.380;2023-07-31T12:15:47;6.32;;;1.67;;
69008;SDS011;56065;52.472;13.380;2023-07-31T12:18:14;5.97;;;1.98;;
69008;SDS011;56065;52.472;13.380;2023-07-31T12:20:41;7.88;;;2.17;;
69008;SDS011;56065;52.472;13.380;2023-07-31T12:23:07;6.33;;;2.23;;
69008;SDS011;56065;52.472;13.380;2023-07-31T12:25:41;6.15;;;1.92;;
69008;SDS011;56065;52.472;13.380;2023-07-31T12:28:07;6.97;;;1.77;;
69008;SDS011;56065;52.472;13.380;2023-07-31T12:30:36;7.73;;;2.10;;
69008;SDS011;56065;52.472;13.380;2023-07-31T12:33:06;5.63;;;2.17;;
69008;SDS011;56065;52.472;13.380;2023-07-31T12:35:38;9.10;;;2.20;;
69008;SDS011;56065;52.472;13.380;2023-07-31T12:38:05;5.95;;;1.90;;
69008;SDS011;56065;52.472;13.380;2023-07-31T12:40:31;6.47;;;1.93;;
69008;SDS011;56065;52.472;13.380;2023-07-31T12:42:57;7.13;;;2.03;;
69008;SDS011;56065;52.472;13.380;2023-07-31T12:45:22;6.70;;;2.07;;
69008;SDS011;56065;52.472;13.380;2023-07-31T12:47:48;7.65;;;1.98;;
69008;SDS011;56065;52.472;13.380;2023-07-31T12:50:14;5.87;;;1.40;;
69008;SDS011;56065;52.472;13.380;2023-07-31T12:52:39;4.97;;;1.40;;
69008;SDS011;56065;52.472;13.380;2023-07-31T12:55:04;6.53;;;1.50;;
69008;SDS011;56065;52.472;13.380;2023-07-31T12:57:30;6.03;;;1.50;;
69008;SDS011;56065;52.472;13.380;2023-07-31T12:59:55;6.27;;;1.60;;
69008;SDS011;56065;52.472;13.380;2023-07-31T13:02:21;6.27;;;1.30;;
69008;SDS011;56065;52.472;13.380;2023-07-31T13:04:46;5.30;;;1.33;;
69008;SDS011;56065;52.472;13.380;2023-07-31T13:07:12;6.13;;;1.30;;
69008;SDS011;56065;52.472;13.380;2023-07-31T13:09:37;5.47;;;1.23;;
69008;SDS011;56065;52.472;13.380;2023-07-31T13:12:02;5.63;;;1.50;;
69008;SDS011;56065;52.472;13.380;2023-07-31T13:14:28;4.57;;;1.13;;
69008;SDS011;56065;52.472;13.380;2023-07-31T13:16:53;6.23;;;1.93;;
69008;SDS011;56065;52.472;13.380;2023-07-31T13:19:18;4.87;;;1.33;;
69008;SDS011;56065;52.472;13.380;2023-07-31T13:21:44;6.43;;;1.27;;
69008;SDS011;56065;52.472;13.380;2023-07-31T13:24:09;6.13;;;1.40;;
69008;SDS011;56065;52.472;13.380;2023-07-31T13:26:35;4.85;;;1.20;;
69008;SDS011;56065;52.472;13.380;2023-07-31T13:29:02;5.43;;;1.55;;
69008;SDS011;56065;52.472;13.380;2023-07-31T13:31:27;5.93;;;1.80;;
69008;SDS011;56065;52.472;13.380;2023-07-31T13:33:52;8.00;;;1.70;;
69008;SDS011;56065;52.472;13.380;2023-07-31T13:36:18;5.37;;;1.70;;
69008;SDS011;56065;52.472;13.380;2023-07-31T13:38:43;6.80;;;1.40;;
69008;SDS011;56065;52.472;13.380;2023-07-31T13:41:08;6.87;;;1.70;;
69008;SDS011;56065;52.472;13.380;2023-07-31T13:43:34;9.23;;;1.88;;
69008;SDS011;56065;52.472;13.380;2023-07-31T13:45:59;8.07;;;2.10;;
69008;SDS011;56065;52.472;13.380;2023-07-31T13:48:31;5.47;;;1.50;;
69008;SDS011;56065;52.472;13.380;2023-07-31T13:50:57;6.68;;;1.98;;
69008;SDS011;56065;52.472;13.380;2023-07-31T13:53:22;7.67;;;1.87;;
69008;SDS011;56065;52.472;13.380;2023-07-31T13:55:47;9.90;;;2.27;;
69008;SDS011;56065;52.472;13.380;2023-07-31T13:58:14;7.63;;;2.30;;
69008;SDS011;56065;52.472;13.380;2023-07-31T14:00:39;6.00;;;2.13;;
69008;SDS011;56065;52.472;13.380;2023-07-31T14:03:05;8.23;;;2.03;;
69008;SDS011;56065;52.472;13.380;2023-07-31T14:05:30;7.27;;;2.30;;
69008;SDS011;56065;52.472;13.380;2023-07-31T14:07:55;7.82;;;2.20;;
69008;SDS011;56065;52.472;13.380;2023-07-31T14:10:21;6.00;;;2.23;;
69008;SDS011;56065;52.472;13.380;2023-07-31T14:12:47;6.90;;;2.28;;
69008;SDS011;56065;52.472;13.380;2023-07-31T14:15:12;6.50;;;2.00;;
69008;SDS011;56065;52.472;13.380;2023-07-31T14:17:37;6.33;;;2.27;;
69008;SDS011;56065;52.472;13.380;2023-07-31T14:20:03;7.90;;;2.67;;
69008;SDS011;56065;52.472;13.380;2023-07-31T14:22:29;6.55;;;2.00;;
69008;SDS011;56065;52.472;13.380;2023-07-31T14:24:55;6.93;;;1.95;;
69008;SDS011;56065;52.472;13.380;2023-07-31T14:27:20;6.57;;;1.90;;
69008;SDS011;56065;52.472;13.380;2023-07-31T14:29:46;10.20;;;2.40;;
69008;SDS011;56065;52.472;13.380;2023-07-31T14:32:11;7.30;;;2.50;;
69008;SDS011;56065;52.472;13.380;2023-07-31T14:34:36;7.50;;;2.40;;
69008;SDS011;56065;52.472;13.380;2023-07-31T14:37:02;6.10;;;2.23;;
69008;SDS011;56065;52.472;13.380;2023-07-31T14:39:27;4.97;;;1.85;;
69008;SDS011;56065;52.472;13.380;2023-07-31T14:41:52;8.13;;;1.67;;
69008;SDS011;56065;52.472;13.380;2023-07-31T14:44:18;6.43;;;2.00;;
69008;SDS011;56065;52.472;13.380;2023-07-31T14:46:43;8.67;;;1.80;;